sensor_id;sensor_type;location;lat;lon;timestamp;temperature;humidity
19538;DHT22;9914;51.008;4.300;2023-02-13T00:00:36;7.10;99.90
19538;DHT22;9914;51.008;4.300;2023-02-13T00:03:02;7.20;99.90
19538;DHT22;9914;51.008;4.300;2023-02-13T00:05:27;7.20;99.90
19538;DHT22;9914;51.008;4.300;2023-02-13T00:07:53;7.10;99.90
19538;DHT22;9914;51.008;4.300;2023-02-13T00:10:18;7.00;99.90
19538;DHT22;9914;51.008;4.300;2023-02-13T00:12:44;7.00;99.90
19538;DHT22;9914;51.008;4.300;2023-02-13T00:15:10;7.00;99.90
19538;DHT22;9914;51.008;4.300;2023-02-13T00:17:36;7.00;99.90
19538;DHT22;9914;51.008;4.300;2023-02-13T00:20:02;7.20;99.90
19538;DHT22;9914;51.008;4.300;2023-02-13T00:22:27;7.20;99.90
19538;DHT22;9914;51.008;4.300;2023-02-13T00:24:53;7.20;99.90
19538;DHT22;9914;51.008;4.300;2023-02-13T00:27:18;7.00;99.90
19538;DHT22;9914;51.008;4.300;2023-02-13T00:29:44;7.00;99.90
19538;DHT22;9914;51.008;4.300;2023-02-13T00:32:10;6.90;99.90
19538;DHT22;9914;51.008;4.300;2023-02-13T00:34:36;7.00;99.90
19538;DHT22;9914;51.008;4.300;2023-02-13T00:37:01;6.90;99.90
19538;DHT22;9914;51.008;4.300;2023-02-13T00:39:27;6.70;99.90
19538;DHT22;9914;51.008;4.300;2023-02-13T00:41:52;6.70;99.90
19538;DHT22;9914;51.008;4.300;2023-02-13T00:44:18;6.60;99.90
19538;DHT22;9914;51.008;4.300;2023-02-13T00:46:44;6.50;99.90
19538;DHT22;9914;51.008;4.300;2023-02-13T00:49:09;6.50;99.90
19538;DHT22;9914;51.008;4.300;2023-02-13T00:51:35;6.40;99.90
19538;DHT22;9914;51.008;4.300;2023-02-13T00:54:00;6.40;99.90
19538;DHT22;9914;51.008;4.300;2023-02-13T00:56:26;6.40;99.90
19538;DHT22;9914;51.008;4.300;2023-02-13T00:58:52;6.40;99.90
19538;DHT22;9914;51.008;4.300;2023-02-13T01:01:17;6.40;99.90
19538;DHT22;9914;51.008;4.300;2023-02-13T01:03:43;6.50;99.90
19538;DHT22;9914;51.008;4.300;2023-02-13T01:06:08;6.50;99.90
19538;DHT22;9914;51.008;4.300;2023-02-13T01:08:38;6.40;99.90
19538;DHT22;9914;51.008;4.300;2023-02-13T01:11:05;6.30;99.90
19538;DHT22;9914;51.008;4.300;2023-02-13T01:13:30;6.20;99.90
19538;DHT22;9914;51.008;4.300;2023-02-13T01:15:56;6.20;99.90
19538;DHT22;9914;51.008;4.300;2023-02-13T01:18:22;6.10;99.90
19538;DHT22;9914;51.008;4.300;2023-02-13T01:21:03;6.20;99.90
19538;DHT22;9914;51.008;4.300;2023-02-13T01:23:31;6.10;99.90
19538;DHT22;9914;51.008;4.300;2023-02-13T01:25:57;6.20;99.90
19538;DHT22;9914;51.008;4.300;2023-02-13T01:28:22;6.10;99.90
19538;DHT22;9914;51.008;4.300;2023-02-13T01:30:56;6.10;99.90
19538;DHT22;9914;51.008;4.300;2023-02-13T01:33:26;6.00;99.90
19538;DHT22;9914;51.008;4.300;2023-02-13T01:35:51;6.00;99.90
19538;DHT22;9914;51.008;4.300;2023-02-13T01:38:17;6.00;99.90
19538;DHT22;9914;51.008;4.300;2023-02-13T01:40:47;5.90;99.90
19538;DHT22;9914;51.008;4.300;2023-02-13T01:43:13;5.80;99.90
19538;DHT22;9914;51.008;4.300;2023-02-13T01:45:40;5.80;99.90
19538;DHT22;9914;51.008;4.300;2023-02-13T01:48:22;5.80;99.90
19538;DHT22;9914;51.008;4.300;2023-02-13T01:50:53;5.70;99.90
19538;DHT22;9914;51.008;4.300;2023-02-13T01:55:57;5.90;99.90
19538;DHT22;9914;51.008;4.300;2023-02-13T01:58:28;5.90;99.90
19538;DHT22;9914;51.008;4.300;2023-02-13T02:00:56;5.80;99.90
19538;DHT22;9914;51.008;4.300;2023-02-13T02:03:27;5.80;99.90
19538;DHT22;9914;51.008;4.300;2023-02-13T02:05:56;5.70;99.90
19538;DHT22;9914;51.008;4.300;2023-02-13T02:08:23;5.60;99.90
19538;DHT22;9914;51.008;4.300;2023-02-13T02:10:49;5.60;99.90
19538;DHT22;9914;51.008;4.300;2023-02-13T02:13:17;5.50;99.90
19538;DHT22;9914;51.008;4.300;2023-02-13T02:15:44;5.50;99.90
19538;DHT22;9914;51.008;4.300;2023-02-13T02:18:20;5.60;99.90
19538;DHT22;9914;51.008;4.300;2023-02-13T02:24:03;5.80;99.90
19538;DHT22;9914;51.008;4.300;2023-02-13T02:38:03;5.30;99.90
19538;DHT22;9914;51.008;4.300;2023-02-13T02:45:56;5.20;99.90
19538;DHT22;9914;51.008;4.300;2023-02-13T02:51:25;5.30;99.90
19538;DHT22;9914;51.008;4.300;2023-02-13T02:54:15;5.40;99.90
19538;DHT22;9914;51.008;4.300;2023-02-13T02:57:10;5.50;99.90
19538;DHT22;9914;51.008;4.300;2023-02-13T02:59:39;5.40;99.90
19538;DHT22;9914;51.008;4.300;2023-02-13T03:02:25;5.40;99.90
19538;DHT22;9914;51.008;4.300;2023-02-13T03:05:23;5.30;99.90
19538;DHT22;9914;51.008;4.300;2023-02-13T03:08:09;5.20;99.90
19538;DHT22;9914;51.008;4.300;2023-02-13T03:10:36;5.20;99.90
19538;DHT22;9914;51.008;4.300;2023-02-13T03:13:33;5.20;99.90
19538;DHT22;9914;51.008;4.300;2023-02-13T03:16:01;5.10;99.90
19538;DHT22;9914;51.008;4.300;2023-02-13T03:18:50;5.00;99.90
19538;DHT22;9914;51.008;4.300;2023-02-13T03:22:21;4.90;99.90
19538;DHT22;9914;51.008;4.300;2023-02-13T03:36:46;4.70;99.90
19538;DHT22;9914;51.008;4.300;2023-02-13T03:45:28;4.90;99.90
19538;DHT22;9914;51.008;4.300;2023-02-13T03:48:15;4.80;99.90
19538;DHT22;9914;51.008;4.300;2023-02-13T03:51:01;4.80;99.90
19538;DHT22;9914;51.008;4.300;2023-02-13T03:53:28;4.90;99.90
19538;DHT22;9914;51.008;4.300;2023-02-13T03:55:58;4.90;99.90
19538;DHT22;9914;51.008;4.300;2023-02-13T03:58:47;5.00;99.90
19538;DHT22;9914;51.008;4.300;2023-02-13T04:01:35;5.00;99.90
19538;DHT22;9914;51.008;4.300;2023-02-13T04:04:09;5.10;99.90
19538;DHT22;9914;51.008;4.300;2023-02-13T04:06:46;5.10;99.90
19538;DHT22;9914;51.008;4.300;2023-02-13T04:09:14;5.20;99.90
19538;DHT22;9914;51.008;4.300;2023-02-13T04:11:43;5.10;99.90
19538;DHT22;9914;51.008;4.300;2023-02-13T04:14:27;5.10;99.90
19538;DHT22;9914;51.008;4.300;2023-02-13T04:17:06;5.10;99.90
19538;DHT22;9914;51.008;4.300;2023-02-13T04:19:34;5.10;99.90
19538;DHT22;9914;51.008;4.300;2023-02-13T04:22:01;5.20;99.90
19538;DHT22;9914;51.008;4.300;2023-02-13T04:24:27;5.30;99.90
19538;DHT22;9914;51.008;4.300;2023-02-13T04:26:53;5.20;99.90
19538;DHT22;9914;51.008;4.300;2023-02-13T04:29:24;5.10;99.90
19538;DHT22;9914;51.008;4.300;2023-02-13T04:31:50;5.10;99.90
19538;DHT22;9914;51.008;4.300;2023-02-13T04:34:16;5.10;99.90
19538;DHT22;9914;51.008;4.300;2023-02-13T04:36:42;5.20;99.90
19538;DHT22;9914;51.008;4.300;2023-02-13T04:39:09;5.20;99.90
19538;DHT22;9914;51.008;4.300;2023-02-13T04:41:35;5.30;99.90
19538;DHT22;9914;51.008;4.300;2023-02-13T04:44:00;5.20;99.90
19538;DHT22;9914;51.008;4.300;2023-02-13T04:46:27;5.10;99.90
19538;DHT22;9914;51.008;4.300;2023-02-13T04:48:53;5.10;99.90
19538;DHT22;9914;51.008;4.300;2023-02-13T04:51:18;5.10;99.90
19538;DHT22;9914;51.008;4.300;2023-02-13T04:53:44;5.00;99.90
19538;DHT22;9914;51.008;4.300;2023-02-13T04:56:09;4.80;99.90
19538;DHT22;9914;51.008;4.300;2023-02-13T04:58:35;4.80;99.90
19538;DHT22;9914;51.008;4.300;2023-02-13T05:01:01;4.60;99.90
19538;DHT22;9914;51.008;4.300;2023-02-13T05:03:26;4.50;99.90
19538;DHT22;9914;51.008;4.300;2023-02-13T05:05:52;4.50;99.90
19538;DHT22;9914;51.008;4.300;2023-02-13T05:08:17;4.50;99.90
19538;DHT22;9914;51.008;4.300;2023-02-13T05:10:43;4.50;99.90
19538;DHT22;9914;51.008;4.300;2023-02-13T05:13:09;4.50;99.90
19538;DHT22;9914;51.008;4.300;2023-02-13T05:15:34;4.40;99.90
19538;DHT22;9914;51.008;4.300;2023-02-13T05:18:00;4.40;99.90
19538;DHT22;9914;51.008;4.300;2023-02-13T05:20:26;4.30;99.90
19538;DHT22;9914;51.008;4.300;2023-02-13T05:22:52;4.20;99.90
19538;DHT22;9914;51.008;4.300;2023-02-13T05:25:38;4.20;99.90
19538;DHT22;9914;51.008;4.300;2023-02-13T05:28:04;4.20;99.90
19538;DHT22;9914;51.008;4.300;2023-02-13T05:30:50;4.20;99.90
19538;DHT22;9914;51.008;4.300;2023-02-13T05:33:16;4.10;99.90
19538;DHT22;9914;51.008;4.300;2023-02-13T05:35:42;3.90;99.90
19538;DHT22;9914;51.008;4.300;2023-02-13T05:38:07;3.80;99.90
19538;DHT22;9914;51.008;4.300;2023-02-13T05:40:33;3.80;99.90
19538;DHT22;9914;51.008;4.300;2023-02-13T05:42:58;3.70;99.90
19538;DHT22;9914;51.008;4.300;2023-02-13T05:45:24;3.80;99.90
19538;DHT22;9914;51.008;4.300;2023-02-13T05:47:49;3.80;99.90
19538;DHT22;9914;51.008;4.300;2023-02-13T05:50:15;3.80;99.90
19538;DHT22;9914;51.008;4.300;2023-02-13T05:52:40;3.90;99.90
19538;DHT22;9914;51.008;4.300;2023-02-13T05:55:06;3.90;99.90
19538;DHT22;9914;51.008;4.300;2023-02-13T05:57:32;3.90;99.90
19538;DHT22;9914;51.008;4.300;2023-02-13T05:59:58;3.70;99.90
19538;DHT22;9914;51.008;4.300;2023-02-13T06:02:23;3.70;99.90
19538;DHT22;9914;51.008;4.300;2023-02-13T06:04:49;3.70;99.90
19538;DHT22;9914;51.008;4.300;2023-02-13T06:07:14;3.60;99.90
19538;DHT22;9914;51.008;4.300;2023-02-13T06:09:40;3.50;99.90
19538;DHT22;9914;51.008;4.300;2023-02-13T06:12:05;3.50;99.90
19538;DHT22;9914;51.008;4.300;2023-02-13T06:14:31;3.60;99.90
19538;DHT22;9914;51.008;4.300;2023-02-13T06:16:57;3.60;99.90
19538;DHT22;9914;51.008;4.300;2023-02-13T06:19:22;3.40;99.90
19538;DHT22;9914;51.008;4.300;2023-02-13T06:21:48;3.40;99.90
19538;DHT22;9914;51.008;4.300;2023-02-13T06:24:13;3.30;99.90
19538;DHT22;9914;51.008;4.300;2023-02-13T06:26:39;3.30;99.90
19538;DHT22;9914;51.008;4.300;2023-02-13T06:29:05;3.30;99.90
19538;DHT22;9914;51.008;4.300;2023-02-13T06:31:30;3.20;99.90
19538;DHT22;9914;51.008;4.300;2023-02-13T06:33:56;3.10;99.90
19538;DHT22;9914;51.008;4.300;2023-02-13T06:36:21;3.00;99.90
19538;DHT22;9914;51.008;4.300;2023-02-13T06:38:47;3.00;99.90
19538;DHT22;9914;51.008;4.300;2023-02-13T06:41:12;2.90;99.90
19538;DHT22;9914;51.008;4.300;2023-02-13T06:43:38;2.90;99.90
19538;DHT22;9914;51.008;4.300;2023-02-13T06:46:05;2.90;99.90
19538;DHT22;9914;51.008;4.300;2023-02-13T06:48:31;2.90;99.90
19538;DHT22;9914;51.008;4.300;2023-02-13T06:50:56;2.80;99.90
19538;DHT22;9914;51.008;4.300;2023-02-13T06:53:22;2.70;99.90
19538;DHT22;9914;51.008;4.300;2023-02-13T06:55:51;2.90;99.90
19538;DHT22;9914;51.008;4.300;2023-02-13T06:58:18;2.70;99.90
19538;DHT22;9914;51.008;4.300;2023-02-13T07:00:44;2.80;99.90
19538;DHT22;9914;51.008;4.300;2023-02-13T07:03:09;2.80;99.90
19538;DHT22;9914;51.008;4.300;2023-02-13T07:05:37;2.80;99.90
19538;DHT22;9914;51.008;4.300;2023-02-13T07:08:03;2.90;99.90
19538;DHT22;9914;51.008;4.300;2023-02-13T07:10:29;2.90;99.90
19538;DHT22;9914;51.008;4.300;2023-02-13T07:12:54;3.00;99.90
19538;DHT22;9914;51.008;4.300;2023-02-13T07:15:20;2.80;99.90
19538;DHT22;9914;51.008;4.300;2023-02-13T07:17:46;2.90;99.90
19538;DHT22;9914;51.008;4.300;2023-02-13T07:20:11;3.00;99.90
19538;DHT22;9914;51.008;4.300;2023-02-13T07:22:37;3.10;99.90
19538;DHT22;9914;51.008;4.300;2023-02-13T07:25:03;3.10;99.90
19538;DHT22;9914;51.008;4.300;2023-02-13T07:27:29;3.00;99.90
19538;DHT22;9914;51.008;4.300;2023-02-13T07:29:55;2.90;99.90
19538;DHT22;9914;51.008;4.300;2023-02-13T07:32:22;2.90;99.90
19538;DHT22;9914;51.008;4.300;2023-02-13T07:34:48;3.00;99.90
19538;DHT22;9914;51.008;4.300;2023-02-13T07:37:14;3.10;99.90
19538;DHT22;9914;51.008;4.300;2023-02-13T07:39:39;3.20;99.90
19538;DHT22;9914;51.008;4.300;2023-02-13T07:42:05;3.20;99.90
19538;DHT22;9914;51.008;4.300;2023-02-13T07:44:31;3.30;99.90
19538;DHT22;9914;51.008;4.300;2023-02-13T07:46:57;3.30;99.90
19538;DHT22;9914;51.008;4.300;2023-02-13T07:49:23;3.40;99.90
19538;DHT22;9914;51.008;4.300;2023-02-13T07:51:49;3.20;99.90
19538;DHT22;9914;51.008;4.300;2023-02-13T07:54:15;3.20;99.90
19538;DHT22;9914;51.008;4.300;2023-02-13T07:56:40;3.30;99.90
19538;DHT22;9914;51.008;4.300;2023-02-13T07:59:06;3.40;99.90
19538;DHT22;9914;51.008;4.300;2023-02-13T08:01:31;3.60;99.90
19538;DHT22;9914;51.008;4.300;2023-02-13T08:03:57;3.60;99.90
19538;DHT22;9914;51.008;4.300;2023-02-13T08:06:22;3.50;99.90
19538;DHT22;9914;51.008;4.300;2023-02-13T08:08:48;3.60;99.90
19538;DHT22;9914;51.008;4.300;2023-02-13T08:11:34;3.60;99.90
19538;DHT22;9914;51.008;4.300;2023-02-13T08:14:21;3.70;99.90
19538;DHT22;9914;51.008;4.300;2023-02-13T08:16:47;3.70;99.90
19538;DHT22;9914;51.008;4.300;2023-02-13T08:19:13;3.90;99.90
19538;DHT22;9914;51.008;4.300;2023-02-13T08:21:39;4.10;99.90
19538;DHT22;9914;51.008;4.300;2023-02-13T08:24:05;4.10;99.90
19538;DHT22;9914;51.008;4.300;2023-02-13T08:26:32;4.20;99.90
19538;DHT22;9914;51.008;4.300;2023-02-13T08:28:58;4.10;99.90
19538;DHT22;9914;51.008;4.300;2023-02-13T08:31:24;4.10;99.90
19538;DHT22;9914;51.008;4.300;2023-02-13T08:33:50;4.20;99.90
19538;DHT22;9914;51.008;4.300;2023-02-13T08:36:15;4.30;99.90
19538;DHT22;9914;51.008;4.300;2023-02-13T08:38:41;4.50;99.90
19538;DHT22;9914;51.008;4.300;2023-02-13T08:41:07;4.40;99.90
19538;DHT22;9914;51.008;4.300;2023-02-13T08:43:32;4.50;99.90
19538;DHT22;9914;51.008;4.300;2023-02-13T08:45:59;4.60;99.90
19538;DHT22;9914;51.008;4.300;2023-02-13T08:48:25;4.80;99.90
19538;DHT22;9914;51.008;4.300;2023-02-13T08:50:51;4.80;99.90
19538;DHT22;9914;51.008;4.300;2023-02-13T08:53:16;4.70;99.90
19538;DHT22;9914;51.008;4.300;2023-02-13T08:55:42;4.80;99.90
19538;DHT22;9914;51.008;4.300;2023-02-13T08:58:08;5.00;99.90
19538;DHT22;9914;51.008;4.300;2023-02-13T09:00:33;5.10;99.90
19538;DHT22;9914;51.008;4.300;2023-02-13T09:03:00;5.20;99.90
19538;DHT22;9914;51.008;4.300;2023-02-13T09:05:27;5.20;99.90
19538;DHT22;9914;51.008;4.300;2023-02-13T09:07:52;5.30;99.90
19538;DHT22;9914;51.008;4.300;2023-02-13T09:10:18;5.50;99.90
19538;DHT22;9914;51.008;4.300;2023-02-13T09:12:44;5.50;99.90
19538;DHT22;9914;51.008;4.300;2023-02-13T09:15:15;5.70;99.90
19538;DHT22;9914;51.008;4.300;2023-02-13T09:17:41;5.90;99.90
19538;DHT22;9914;51.008;4.300;2023-02-13T09:20:07;5.90;99.90
19538;DHT22;9914;51.008;4.300;2023-02-13T09:22:32;6.00;99.90
19538;DHT22;9914;51.008;4.300;2023-02-13T09:24:58;5.80;99.90
19538;DHT22;9914;51.008;4.300;2023-02-13T09:27:28;6.00;99.90
19538;DHT22;9914;51.008;4.300;2023-02-13T09:29:54;6.10;99.90
19538;DHT22;9914;51.008;4.300;2023-02-13T09:32:20;6.30;99.90
19538;DHT22;9914;51.008;4.300;2023-02-13T09:34:45;6.30;99.90
19538;DHT22;9914;51.008;4.300;2023-02-13T09:37:11;6.30;99.90
19538;DHT22;9914;51.008;4.300;2023-02-13T09:39:36;6.60;99.90
19538;DHT22;9914;51.008;4.300;2023-02-13T09:42:10;6.80;99.90
19538;DHT22;9914;51.008;4.300;2023-02-13T09:44:42;6.80;99.90
19538;DHT22;9914;51.008;4.300;2023-02-13T09:49:44;6.90;99.90
19538;DHT22;9914;51.008;4.300;2023-02-13T09:52:11;7.20;99.90
19538;DHT22;9914;51.008;4.300;2023-02-13T09:54:37;7.60;99.90
19538;DHT22;9914;51.008;4.300;2023-02-13T09:57:25;7.70;99.90
19538;DHT22;9914;51.008;4.300;2023-02-13T10:14:17;8.20;99.90
19538;DHT22;9914;51.008;4.300;2023-02-13T10:19:34;8.50;99.90
19538;DHT22;9914;51.008;4.300;2023-02-13T10:22:15;8.60;99.90
19538;DHT22;9914;51.008;4.300;2023-02-13T10:27:25;8.80;99.90
19538;DHT22;9914;51.008;4.300;2023-02-13T10:35:25;9.60;99.90
19538;DHT22;9914;51.008;4.300;2023-02-13T10:37:54;9.60;99.90
19538;DHT22;9914;51.008;4.300;2023-02-13T10:40:27;9.70;99.90
19538;DHT22;9914;51.008;4.300;2023-02-13T10:43:08;10.00;99.90
19538;DHT22;9914;51.008;4.300;2023-02-13T10:45:59;10.00;99.90
19538;DHT22;9914;51.008;4.300;2023-02-13T10:52:17;10.10;99.90
19538;DHT22;9914;51.008;4.300;2023-02-13T10:54:24;10.30;99.90
19538;DHT22;9914;51.008;4.300;2023-02-13T11:02:30;10.40;99.90
19538;DHT22;9914;51.008;4.300;2023-02-13T11:05:36;10.60;99.90
19538;DHT22;9914;51.008;4.300;2023-02-13T11:08:02;10.80;99.90
19538;DHT22;9914;51.008;4.300;2023-02-13T11:10:28;10.90;99.90
19538;DHT22;9914;51.008;4.300;2023-02-13T11:12:54;11.00;99.90
19538;DHT22;9914;51.008;4.300;2023-02-13T11:15:29;11.00;99.90
19538;DHT22;9914;51.008;4.300;2023-02-13T11:18:02;11.10;99.90
19538;DHT22;9914;51.008;4.300;2023-02-13T11:20:38;11.30;99.90
19538;DHT22;9914;51.008;4.300;2023-02-13T11:26:10;11.30;99.90
19538;DHT22;9914;51.008;4.300;2023-02-13T11:28:43;11.20;99.90
19538;DHT22;9914;51.008;4.300;2023-02-13T11:33:50;11.60;99.90
19538;DHT22;9914;51.008;4.300;2023-02-13T11:36:23;11.80;99.90
19538;DHT22;9914;51.008;4.300;2023-02-13T11:39:16;11.70;99.90
19538;DHT22;9914;51.008;4.300;2023-02-13T11:41:43;11.90;99.90
19538;DHT22;9914;51.008;4.300;2023-02-13T11:44:28;11.80;99.90
19538;DHT22;9914;51.008;4.300;2023-02-13T11:46:57;11.70;99.90
19538;DHT22;9914;51.008;4.300;2023-02-13T11:49:25;11.80;99.90
19538;DHT22;9914;51.008;4.300;2023-02-13T11:51:54;12.10;99.90
19538;DHT22;9914;51.008;4.300;2023-02-13T11:56:55;12.50;99.90
19538;DHT22;9914;51.008;4.300;2023-02-13T11:59:22;12.80;99.90
19538;DHT22;9914;51.008;4.300;2023-02-13T12:02:12;12.80;99.90
19538;DHT22;9914;51.008;4.300;2023-02-13T12:04:38;12.80;99.90
19538;DHT22;9914;51.008;4.300;2023-02-13T12:07:16;12.60;99.90
19538;DHT22;9914;51.008;4.300;2023-02-13T12:09:44;12.60;99.90
19538;DHT22;9914;51.008;4.300;2023-02-13T12:12:29;12.80;99.90
19538;DHT22;9914;51.008;4.300;2023-02-13T12:14:57;12.80;99.90
19538;DHT22;9914;51.008;4.300;2023-02-13T12:17:27;12.80;99.90
19538;DHT22;9914;51.008;4.300;2023-02-13T12:19:54;12.80;99.90
19538;DHT22;9914;51.008;4.300;2023-02-13T12:22:31;12.80;99.90
19538;DHT22;9914;51.008;4.300;2023-02-13T12:31:22;13.20;99.90
19538;DHT22;9914;51.008;4.300;2023-02-13T12:39:24;13.70;99.90
19538;DHT22;9914;51.008;4.300;2023-02-13T12:48:27;13.50;99.90
19538;DHT22;9914;51.008;4.300;2023-02-13T13:15:40;13.60;99.90
19538;DHT22;9914;51.008;4.300;2023-02-13T13:18:29;13.70;99.90
19538;DHT22;9914;51.008;4.300;2023-02-13T13:21:24;13.80;99.90
19538;DHT22;9914;51.008;4.300;2023-02-13T13:26:42;13.90;99.90
19538;DHT22;9914;51.008;4.300;2023-02-13T13:31:58;13.90;99.90
19538;DHT22;9914;51.008;4.300;2023-02-13T13:34:25;14.10;99.90
19538;DHT22;9914;51.008;4.300;2023-02-13T13:42:15;13.80;99.90
19538;DHT22;9914;51.008;4.300;2023-02-13T13:49:57;14.10;99.90
19538;DHT22;9914;51.008;4.300;2023-02-13T13:52:28;14.20;99.90
19538;DHT22;9914;51.008;4.300;2023-02-13T13:54:56;14.10;99.90
19538;DHT22;9914;51.008;4.300;2023-02-13T13:57:26;14.30;99.90
19538;DHT22;9914;51.008;4.300;2023-02-13T14:02:35;14.40;99.90
19538;DHT22;9914;51.008;4.300;2023-02-13T14:05:24;14.50;99.90
19538;DHT22;9914;51.008;4.300;2023-02-13T14:07:54;14.30;99.90
19538;DHT22;9914;51.008;4.300;2023-02-13T14:12:48;14.40;99.90
19538;DHT22;9914;51.008;4.300;2023-02-13T14:18:41;14.30;99.90
19538;DHT22;9914;51.008;4.300;2023-02-13T14:28:53;14.30;99.90
19538;DHT22;9914;51.008;4.300;2023-02-13T14:31:29;14.50;99.90
19538;DHT22;9914;51.008;4.300;2023-02-13T14:34:15;14.30;99.90
19538;DHT22;9914;51.008;4.300;2023-02-13T14:36:45;14.10;99.90
19538;DHT22;9914;51.008;4.300;2023-02-13T14:39:33;14.10;99.90
19538;DHT22;9914;51.008;4.300;2023-02-13T14:42:02;14.40;99.90
19538;DHT22;9914;51.008;4.300;2023-02-13T14:47:25;14.30;99.90
19538;DHT22;9914;51.008;4.300;2023-02-13T14:49:54;14.20;99.90
19538;DHT22;9914;51.008;4.300;2023-02-13T14:52:25;14.30;99.90
19538;DHT22;9914;51.008;4.300;2023-02-13T14:54:59;14.60;99.90
19538;DHT22;9914;51.008;4.300;2023-02-13T14:57:30;14.70;99.90
19538;DHT22;9914;51.008;4.300;2023-02-13T15:02:38;14.40;99.90
19538;DHT22;9914;51.008;4.300;2023-02-13T15:05:11;14.40;99.90
19538;DHT22;9914;51.008;4.300;2023-02-13T15:07:45;14.40;99.90
19538;DHT22;9914;51.008;4.300;2023-02-13T15:13:00;14.60;99.90
19538;DHT22;9914;51.008;4.300;2023-02-13T15:15:34;14.70;99.90
19538;DHT22;9914;51.008;4.300;2023-02-13T15:18:10;14.80;99.90
19538;DHT22;9914;51.008;4.300;2023-02-13T15:20:38;14.40;99.90
19538;DHT22;9914;51.008;4.300;2023-02-13T15:23:05;14.30;99.90
19538;DHT22;9914;51.008;4.300;2023-02-13T15:27:56;14.00;99.90
19538;DHT22;9914;51.008;4.300;2023-02-13T15:30:29;13.90;99.90
19538;DHT22;9914;51.008;4.300;2023-02-13T15:32:59;13.70;99.90
19538;DHT22;9914;51.008;4.300;2023-02-13T15:35:26;13.70;99.90
19538;DHT22;9914;51.008;4.300;2023-02-13T15:37:52;13.90;99.90
19538;DHT22;9914;51.008;4.300;2023-02-13T15:40:31;14.00;99.90
19538;DHT22;9914;51.008;4.300;2023-02-13T15:42:58;14.00;99.90
19538;DHT22;9914;51.008;4.300;2023-02-13T15:45:26;14.10;99.90
19538;DHT22;9914;51.008;4.300;2023-02-13T15:47:52;14.00;99.90
19538;DHT22;9914;51.008;4.300;2023-02-13T15:50:32;13.90;99.90
19538;DHT22;9914;51.008;4.300;2023-02-13T15:53:02;14.00;99.90
19538;DHT22;9914;51.008;4.300;2023-02-13T15:55:30;14.00;99.90
19538;DHT22;9914;51.008;4.300;2023-02-13T15:57:59;14.10;99.90
19538;DHT22;9914;51.008;4.300;2023-02-13T16:00:31;14.10;99.90
19538;DHT22;9914;51.008;4.300;2023-02-13T16:02:59;14.00;99.90
19538;DHT22;9914;51.008;4.300;2023-02-13T16:05:26;13.90;99.90
19538;DHT22;9914;51.008;4.300;2023-02-13T16:07:55;13.70;99.90
19538;DHT22;9914;51.008;4.300;2023-02-13T16:12:50;13.40;99.90
19538;DHT22;9914;51.008;4.300;2023-02-13T16:15:19;13.50;99.90
19538;DHT22;9914;51.008;4.300;2023-02-13T16:17:46;13.70;99.90
19538;DHT22;9914;51.008;4.300;2023-02-13T16:22:51;13.50;99.90
19538;DHT22;9914;51.008;4.300;2023-02-13T16:25:27;14.00;99.90
19538;DHT22;9914;51.008;4.300;2023-02-13T16:27:55;14.60;99.90
19538;DHT22;9914;51.008;4.300;2023-02-13T16:33:19;14.60;99.90
19538;DHT22;9914;51.008;4.300;2023-02-13T16:35:47;14.10;99.90
19538;DHT22;9914;51.008;4.300;2023-02-13T16:40:58;13.40;99.90
19538;DHT22;9914;51.008;4.300;2023-02-13T16:51:09;12.60;99.90
19538;DHT22;9914;51.008;4.300;2023-02-13T16:53:38;12.50;99.90
19538;DHT22;9914;51.008;4.300;2023-02-13T16:56:06;12.30;99.90
19538;DHT22;9914;51.008;4.300;2023-02-13T16:58:34;12.00;99.90
19538;DHT22;9914;51.008;4.300;2023-02-13T17:01:00;11.80;99.90
19538;DHT22;9914;51.008;4.300;2023-02-13T17:03:27;11.70;99.90
19538;DHT22;9914;51.008;4.300;2023-02-13T17:05:52;11.50;99.90
19538;DHT22;9914;51.008;4.300;2023-02-13T17:08:20;11.40;99.90
19538;DHT22;9914;51.008;4.300;2023-02-13T17:11:05;11.30;99.90
19538;DHT22;9914;51.008;4.300;2023-02-13T17:13:31;11.10;99.90
19538;DHT22;9914;51.008;4.300;2023-02-13T17:15:57;11.00;99.90
19538;DHT22;9914;51.008;4.300;2023-02-13T17:18:24;10.90;99.90
19538;DHT22;9914;51.008;4.300;2023-02-13T17:20:50;10.80;99.90
19538;DHT22;9914;51.008;4.300;2023-02-13T17:23:19;10.70;99.90
19538;DHT22;9914;51.008;4.300;2023-02-13T17:25:48;10.70;99.90
19538;DHT22;9914;51.008;4.300;2023-02-13T17:28:25;10.60;99.90
19538;DHT22;9914;51.008;4.300;2023-02-13T17:30:53;10.50;99.90
19538;DHT22;9914;51.008;4.300;2023-02-13T17:33:23;10.40;99.90
19538;DHT22;9914;51.008;4.300;2023-02-13T17:35:49;10.40;99.90
19538;DHT22;9914;51.008;4.300;2023-02-13T17:38:14;10.30;99.90
19538;DHT22;9914;51.008;4.300;2023-02-13T17:40:41;10.20;99.90
19538;DHT22;9914;51.008;4.300;2023-02-13T17:43:10;10.10;99.90
19538;DHT22;9914;51.008;4.300;2023-02-13T17:45:36;10.10;99.90
19538;DHT22;9914;51.008;4.300;2023-02-13T17:48:01;10.00;99.90
19538;DHT22;9914;51.008;4.300;2023-02-13T17:50:29;10.00;99.90
19538;DHT22;9914;51.008;4.300;2023-02-13T17:52:55;9.90;99.90
19538;DHT22;9914;51.008;4.300;2023-02-13T17:55:22;9.90;99.90
19538;DHT22;9914;51.008;4.300;2023-02-13T17:57:49;10.00;99.90
19538;DHT22;9914;51.008;4.300;2023-02-13T18:00:16;10.00;99.90
19538;DHT22;9914;51.008;4.300;2023-02-13T18:02:42;9.90;99.90
19538;DHT22;9914;51.008;4.300;2023-02-13T18:05:08;9.80;99.90
19538;DHT22;9914;51.008;4.300;2023-02-13T18:07:34;9.80;99.90
19538;DHT22;9914;51.008;4.300;2023-02-13T18:10:00;9.80;99.90
19538;DHT22;9914;51.008;4.300;2023-02-13T18:12:26;9.90;99.90
19538;DHT22;9914;51.008;4.300;2023-02-13T18:14:52;9.90;99.90
19538;DHT22;9914;51.008;4.300;2023-02-13T18:17:18;9.80;99.90
19538;DHT22;9914;51.008;4.300;2023-02-13T18:19:44;9.80;99.90
19538;DHT22;9914;51.008;4.300;2023-02-13T18:22:11;9.70;99.90
19538;DHT22;9914;51.008;4.300;2023-02-13T18:24:39;9.50;99.90
19538;DHT22;9914;51.008;4.300;2023-02-13T18:27:05;9.50;99.90
19538;DHT22;9914;51.008;4.300;2023-02-13T18:29:35;9.50;99.90
19538;DHT22;9914;51.008;4.300;2023-02-13T18:32:02;9.50;99.90
19538;DHT22;9914;51.008;4.300;2023-02-13T18:34:28;9.40;99.90
19538;DHT22;9914;51.008;4.300;2023-02-13T18:36:54;9.30;99.90
19538;DHT22;9914;51.008;4.300;2023-02-13T18:39:19;9.20;99.90
19538;DHT22;9914;51.008;4.300;2023-02-13T18:41:45;9.00;99.90
19538;DHT22;9914;51.008;4.300;2023-02-13T18:44:11;8.90;99.90
19538;DHT22;9914;51.008;4.300;2023-02-13T18:46:36;8.80;99.90
19538;DHT22;9914;51.008;4.300;2023-02-13T18:49:02;8.80;99.90
19538;DHT22;9914;51.008;4.300;2023-02-13T18:51:28;8.60;99.90
19538;DHT22;9914;51.008;4.300;2023-02-13T18:53:54;8.60;99.90
19538;DHT22;9914;51.008;4.300;2023-02-13T18:56:19;8.50;99.90
19538;DHT22;9914;51.008;4.300;2023-02-13T18:58:48;8.40;99.90
19538;DHT22;9914;51.008;4.300;2023-02-13T19:01:16;8.40;99.90
19538;DHT22;9914;51.008;4.300;2023-02-13T19:03:44;8.30;99.90
19538;DHT22;9914;51.008;4.300;2023-02-13T19:06:12;8.20;99.90
19538;DHT22;9914;51.008;4.300;2023-02-13T19:08:39;8.30;99.90
19538;DHT22;9914;51.008;4.300;2023-02-13T19:11:08;8.40;99.90
19538;DHT22;9914;51.008;4.300;2023-02-13T19:13:34;8.30;99.90
19538;DHT22;9914;51.008;4.300;2023-02-13T19:16:08;8.30;99.90
19538;DHT22;9914;51.008;4.300;2023-02-13T19:18:41;8.20;99.90
19538;DHT22;9914;51.008;4.300;2023-02-13T19:21:08;8.10;99.90
19538;DHT22;9914;51.008;4.300;2023-02-13T19:23:37;8.10;99.90